Terminal Aerodrome Forecast
Issued by NWS

Home | Current Version | Previous Version | Text Only | Print | Product List | Glossary On
Versions: 1 2 3 4 5 6 7 8 9 10 11 12 13 14 15 16 17 18
000
FTUS42 KFFC 242157 AAB
TAFRYY
TAF AMD
KRYY 242157Z 2422/2518 VRB05KT P6SM VCSH BKN040
     FM250000 26005KT P6SM SCT040 SCT150
     FM251300 30005KT P6SM VCSH SCT020 SCT200
     FM251600 32007KT P6SM VCSH BKN030 BKN100=

USA.gov is the U.S. government's official web portal to all federal, state and local government web resources and services.